sensor_id;sensor_type;location;lat;lon;timestamp;pressure;altitude;pressure_sealevel;temperature;humidity
71642;BME280;60657;50.122;14.468;2022-10-17T00:01:23;99039.89245666165;;;17.57381551842527;81.27779049362935
71642;BME280;60657;50.122;14.468;2022-10-17T00:04:24;99044.12695116606;;;17.581826504921032;81.10421911955444
71642;BME280;60657;50.122;14.468;2022-10-17T00:07:26;99039.1936395622;;;17.5658045319295;81.02983138780804
71642;BME280;60657;50.122;14.468;2022-10-17T00:10:28;99042.56994866145;;;17.50705729762722;81.14808880750743
71642;BME280;60657;50.122;14.468;2022-10-17T00:13:30;99051.26296201503;;;17.368200198367283;81.47234302281224
71642;BME280;60657;50.122;14.468;2022-10-17T00:16:33;99050.4565476026;;;17.426947432669564;81.38651102464333
71642;BME280;60657;50.122;14.468;2022-10-17T00:19:36;99051.38608667703;;;17.381551842526896;81.33310444800489
71642;BME280;60657;50.122;14.468;2022-10-17T00:22:38;99049.86831045803;;;17.290760662241553;81.38460364690623
71642;BME280;60657;50.122;14.468;2022-10-17T00:25:40;99039.84521662859;;;17.240024414435034;81.43991760128176
71642;BME280;60657;50.122;14.468;2022-10-17T00:28:44;99050.00987314439;;;17.210650797283897;81.3445487144274
71642;BME280;60657;50.122;14.468;2022-10-17T00:31:46;99061.11543261282;;;17.093156328679335;81.48187991149767
71642;BME280;60657;50.122;14.468;2022-10-17T00:34:48;99062.14432545811;;;16.986343175402453;81.76989394979782
71642;BME280;60657;50.122;14.468;2022-10-17T00:37:50;99049.67029071;;;16.887541008621348;82.08461127641718
71642;BME280;60657;50.122;14.468;2022-10-17T00:40:52;99061.50285177781;;;16.799420157167923;82.24673838406959
71642;BME280;60657;50.122;14.468;2022-10-17T00:43:56;99059.83943398939;;;16.770046540016786;82.2429236285954
71642;BME280;60657;50.122;14.468;2022-10-17T00:47:00;99060.73291684702;;;16.772716868848704;82.34401464866102
71642;BME280;60657;50.122;14.468;2022-10-17T00:50:07;99052.33355877986;;;16.780727855344473;82.4050507362478
71642;BME280;60657;50.122;14.468;2022-10-17T00:53:12;99065.72340805932;;;16.770046540016786;82.31540398260472
71642;BME280;60657;50.122;14.468;2022-10-17T00:56:16;99061.52354109917;;;16.796749828336004;82.20477607385367
71642;BME280;60657;50.122;14.468;2022-10-17T00:59:20;99064.05989679853;;;16.77538719768063;82.0521858548867
71642;BME280;60657;50.122;14.468;2022-10-17T01:02:25;99079.17456997352;;;16.772716868848704;82.07888914320593
71642;BME280;60657;50.122;14.468;2022-10-17T01:05:27;99059.90118072898;;;16.7593652246891;81.9358358129244
71642;BME280;60657;50.122;14.468;2022-10-17T01:08:29;99069.88224828136;;;16.770046540016786;81.98924238956283
71642;BME280;60657;50.122;14.468;2022-10-17T01:11:34;99066.51393758784;;;16.807431143663692;81.89768825818265
71642;BME280;60657;50.122;14.468;2022-10-17T01:14:49;99071.50446172037;;;16.83413443198291;81.80422674906538
71642;BME280;60657;50.122;14.468;2022-10-17T01:18:09;99070.58898933377;;;16.85015640497444;81.64400701915007
71642;BME280;60657;50.122;14.468;2022-10-17T01:21:24;99071.42071350537;;;16.874189364461735;81.34645609216449
71642;BME280;60657;50.122;14.468;2022-10-17T01:24:44;99070.7140269649;;;16.799420157167923;81.31212329289693
71642;BME280;60657;50.122;14.468;2022-10-17T01:28:13;99063.3892538334;;;16.6739147020676;81.63447013046463
71642;BME280;60657;50.122;14.468;2022-10-17T01:31:35;99071.84472976545;;;16.628519111924923;81.6974135957885
71642;BME280;60657;50.122;14.468;2022-10-17T01:34:47;99067.68512996794;;;16.575112535286486;81.73365377279316
71642;BME280;60657;50.122;14.468;2022-10-17T01:38:01;99065.17017571638;;;16.575112535286486;81.69169146257725
71642;BME280;60657;50.122;14.468;2022-10-17T01:41:13;99066.07852909157;;;16.524376287479974;81.53337911039903
71642;BME280;60657;50.122;14.468;2022-10-17T01:44:28;99064.52661738751;;;16.414892805371174;81.84809643701838
71642;BME280;60657;50.122;14.468;2022-10-17T01:47:41;99071.25578645094;;;16.4175631342031;81.85381857022965
71642;BME280;60657;50.122;14.468;2022-10-17T01:50:44;99067.92761309513;;;16.35080491340505;81.74128328374151
71642;BME280;60657;50.122;14.468;2022-10-17T01:53:53;99066.2635477966;;;16.21995880064088;81.73174639505608
71642;BME280;60657;50.122;14.468;2022-10-17T01:57:03;99068.84902029128;;;16.1612115663386;81.67833981841764
71642;BME280;60657;50.122;14.468;2022-10-17T02:00:14;99068.98745895718;;;16.155870908674757;81.57152666514077
71642;BME280;60657;50.122;14.468;2022-10-17T02:03:21;99063.27846497772;;;16.022354467078664;81.7145799954223
71642;BME280;60657;50.122;14.468;2022-10-17T02:06:28;99068.44614142792;;;15.854123750667583;82.11894407568475
71642;BME280;60657;50.122;14.468;2022-10-17T02:09:30;99064.2845196538;;;15.88349736781872;82.22003509575036
71642;BME280;60657;50.122;14.468;2022-10-17T02:12:34;99068.55159983259;;;15.846112764171814;82.24864576180667
71642;BME280;60657;50.122;14.468;2022-10-17T02:15:53;99071.91065020255;;;15.808728160524907;82.50995651178759
71642;BME280;60657;50.122;14.468;2022-10-17T02:19:15;99071.07821843203;;;15.782024872205689;82.69115739681087
71642;BME280;60657;50.122;14.468;2022-10-17T02:22:34;99070.27482388052;;;15.728618295567252;82.97535667963683
71642;BME280;60657;50.122;14.468;2022-10-17T02:25:45;99073.60463443052;;;15.757991912718396;82.8494697489891
71642;BME280;60657;50.122;14.468;2022-10-17T02:28:55;99069.42791659421;;;15.784695201037614;82.72167544060426
71642;BME280;60657;50.122;14.468;2022-10-17T02:32:07;99072.7284091282;;;15.782024872205689;82.65873197528039
71642;BME280;60657;50.122;14.468;2022-10-17T02:35:16;99074.36361843937;;;15.832761120012208;82.57862211032273
71642;BME280;60657;50.122;14.468;2022-10-17T02:38:21;99082.68795452935;;;15.886167696650645;82.31921873807889
71642;BME280;60657;50.122;14.468;2022-10-17T02:41:27;99082.74729311453;;;15.82207980468452;82.2581826504921
71642;BME280;60657;50.122;14.468;2022-10-17T02:44:33;99087.7860544039;;;15.819409475852595;82.26962691691463
71642;BME280;60657;50.122;14.468;2022-10-17T02:47:41;99083.53538309717;;;15.848783093003739;82.14946211947814
71642;BME280;60657;50.122;14.468;2022-10-17T02:50:51;99081.92941188737;;;15.787365529869533;82.20477607385367
71642;BME280;60657;50.122;14.468;2022-10-17T02:54:04;99086.98223281288;;;15.768673228046083;82.19333180743115
71642;BME280;60657;50.122;14.468;2022-10-17T02:57:15;99079.46083511804;;;15.766002899214158;82.13229571984436
71642;BME280;60657;50.122;14.468;2022-10-17T03:00:23;99081.08232084887;;;15.846112764171814;81.85381857022965
71642;BME280;60657;50.122;14.468;2022-10-17T03:03:30;99089.55032095776;;;15.75532158388647;81.86526283665216
71642;BME280;60657;50.122;14.468;2022-10-17T03:06:32;99081.98696526364;;;15.744640268558783;81.89196612497139
71642;BME280;60657;50.122;14.468;2022-10-17T03:09:34;99085.34545827465;;;15.747310597390708;81.96063172350652
71642;BME280;60657;50.122;14.468;2022-10-17T03:12:36;99095.36473211616;;;15.739299610894939;81.88242923628596
71642;BME280;60657;50.122;14.468;2022-10-17T03:15:39;99087.01059994855;;;15.66987106126497;82.00640878919661
71642;BME280;60657;50.122;14.468;2022-10-17T03:18:41;99099.6509689859;;;15.552376592660409;82.38597695887694
71642;BME280;60657;50.122;14.468;2022-10-17T03:21:43;99093.8350939809;;;15.520332646677346;82.54238193331807
71642;BME280;60657;50.122;14.468;2022-10-17T03:24:44;99093.82192542833;;;15.504310673685815;82.29823758297093
71642;BME280;60657;50.122;14.468;2022-10-17T03:27:46;99101.43258874562;;;15.40550850690471;82.53665980010682
71642;BME280;60657;50.122;14.468;2022-10-17T03:30:48;99097.25599562435;;;15.400167849240866;82.4355687800412
71642;BME280;60657;50.122;14.468;2022-10-17T03:33:50;99105.74120424263;;;15.26932173647669;82.94483863584344
71642;BME280;60657;50.122;14.468;2022-10-17T03:36:52;99100.77749997086;;;15.213244831006335;82.54810406652933
71642;BME280;60657;50.122;14.468;2022-10-17T03:39:54;99109.10732678612;;;15.223926146334023;82.52521553368429
71642;BME280;60657;50.122;14.468;2022-10-17T03:42:56;99105.10120714702;;;15.00495918211643;83.02113374532692
71642;BME280;60657;50.122;14.468;2022-10-17T03:45:58;99112.60945299613;;;15.045014114595254;83.0993362325475
71642;BME280;60657;50.122;14.468;2022-10-17T03:49:01;99113.41239890321;;;15.058365758754867;82.67208361943999
71642;BME280;60657;50.122;14.468;2022-10-17T03:52:03;99122.71296844806;;;14.970244907301442;82.83039597161822
71642;BME280;60657;50.122;14.468;2022-10-17T03:55:06;99125.203764674;;;15.031662470435649;82.70450904097048
71642;BME280;60657;50.122;14.468;2022-10-17T03:58:08;99123.53714125522;;;15.028992141603723;82.58052948805981
71642;BME280;60657;50.122;14.468;2022-10-17T04:01:11;99121.93257332864;;;14.874113069352255;82.78271152819104
71642;BME280;60657;50.122;14.468;2022-10-17T04:04:15;99120.32349367166;;;14.729915312428474;83.08026245517662
71642;BME280;60657;50.122;14.468;2022-10-17T04:07:16;99126.14952131236;;;14.842069123369193;83.00587472343022
71642;BME280;60657;50.122;14.468;2022-10-17T04:10:18;99126.13317979674;;;14.866102082856486;82.94674601358052
71642;BME280;60657;50.122;14.468;2022-10-17T04:13:20;99132.87215331172;;;14.783321889066912;83.27481498435951
71642;BME280;60657;50.122;14.468;2022-10-17T04:16:22;99131.2760592417;;;14.676508735790037;83.789806973373
71642;BME280;60657;50.122;14.468;2022-10-17T04:19:24;99133.8216534893;;;14.564354924849319;84.19226367589837
71642;BME280;60657;50.122;14.468;2022-10-17T04:22:26;99133.01155531063;;;14.521629663538569;84.42687113756008
71642;BME280;60657;50.122;14.468;2022-10-17T04:25:28;99137.2080498671;;;14.457541771572444;84.80643930724041
71642;BME280;60657;50.122;14.468;2022-10-17T04:28:30;99129.71938382939;;;14.374761577782863;85.17837796597239
71642;BME280;60657;50.122;14.468;2022-10-17T04:31:34;99140.59270187766;;;14.310673685816738;85.43015182726788
71642;BME280;60657;50.122;14.468;2022-10-17T04:34:36;99144.74822355795;;;14.404135194934007;84.91325246051728
71642;BME280;60657;50.122;14.468;2022-10-17T04:37:38;99134.72221314933;;;14.438849469748988;84.85603112840467
71642;BME280;60657;50.122;14.468;2022-10-17T04:40:40;99143.07066871643;;;14.444190127412831;84.91897459372854
71642;BME280;60657;50.122;14.468;2022-10-17T04:43:44;99146.39599153766;;;14.444190127412831;84.9685664148928
71642;BME280;60657;50.122;14.468;2022-10-17T04:46:46;99150.59042968469;;;14.388113221942476;84.99145494773785
71642;BME280;60657;50.122;14.468;2022-10-17T04:49:48;99150.54376193335;;;14.417486839093613;84.70534828717479
71642;BME280;60657;50.122;14.468;2022-10-17T04:52:50;99148.01935005537;;;14.489585717555507;84.27428091859312
71642;BME280;60657;50.122;14.468;2022-10-17T04:55:52;99145.52379262498;;;14.460212100404362;83.75928892957961
71642;BME280;60657;50.122;14.468;2022-10-17T04:58:54;99146.33983281396;;;14.5376516365301;84.34294651712825
71642;BME280;60657;50.122;14.468;2022-10-17T05:01:56;99150.4963760571;;;14.601739528496225;84.06637674525064
71642;BME280;60657;50.122;14.468;2022-10-17T05:04:58;99147.94235520456;;;14.671168078126193;83.87563897154192
71642;BME280;60657;50.122;14.468;2022-10-17T05:08:00;99151.24116742417;;;14.75127794308385;83.79362172884719
71642;BME280;60657;50.122;14.468;2022-10-17T05:11:02;99152.90101026383;;;14.812695506218049;84.0415808346685
71642;BME280;60657;50.122;14.468;2022-10-17T05:14:05;99160.38864750152;;;14.868772411688411;83.73830777447165
71642;BME280;60657;50.122;14.468;2022-10-17T05:17:07;99156.997726681;;;14.900816357671474;83.34157320515754
71642;BME280;60657;50.122;14.468;2022-10-17T05:20:10;99167.02599166386;;;14.932860303654536;82.82085908293278
71642;BME280;60657;50.122;14.468;2022-10-17T05:23:12;99172.93996557496;;;14.815365835049974;82.98680094605936
71642;BME280;60657;50.122;14.468;2022-10-17T05:26:14;99171.31510487995;;;14.719233997100787;82.90478370336461
71642;BME280;60657;50.122;14.468;2022-10-17T05:29:16;99165.54781828824;;;14.545662623025862;82.89524681467918
71642;BME280;60657;50.122;14.468;2022-10-17T05:32:19;99171.41363317375;;;14.524299992370487;82.98489356832226
71642;BME280;60657;50.122;14.468;2022-10-17T05:35:21;99173.04109173003;;;14.585717555504694;82.50804913405051
71642;BME280;60657;50.122;14.468;2022-10-17T05:38:23;99178.85328526328;;;14.652475776302737;82.2887006942855
71642;BME280;60657;50.122;14.468;2022-10-17T05:41:25;99188.93907594474;;;14.61509117265583;82.09605554283971
71642;BME280;60657;50.122;14.468;2022-10-17T05:44:32;99199.83404800465;;;14.492256046387425;82.53665980010682
71642;BME280;60657;50.122;14.468;2022-10-17T05:47:34;99198.14605173051;;;14.510948348210881;82.26962691691463
71642;BME280;60657;50.122;14.468;2022-10-17T05:50:36;99202.28467737114;;;14.583047226672768;82.40314335851072
71642;BME280;60657;50.122;14.468;2022-10-17T05:53:39;99198.1027237872;;;14.639124132143131;82.35545891508355
71642;BME280;60657;50.122;14.468;2022-10-17T05:56:42;99201.43912157508;;;14.684519722285799;82.59388113221942
71642;BME280;60657;50.122;14.468;2022-10-17T05:59:44;99218.04384741832;;;14.927519645990692;81.993057145037
71642;BME280;60657;50.122;14.468;2022-10-17T06:02:46;99227.9929441086;;;15.028992141603723;81.01266498817427
71642;BME280;60657;50.122;14.468;2022-10-17T06:05:48;99229.63704147076;;;15.141145952544441;80.14862287327382
71642;BME280;60657;50.122;14.468;2022-10-17T06:08:50;99240.73490961299;;;14.713893339436943;81.06225680933852
71642;BME280;60657;50.122;14.468;2022-10-17T06:11:52;99230.7123851855;;;14.732585641260393;81.45326924544136
71642;BME280;60657;50.122;14.468;2022-10-17T06:14:54;99229.95552330276;;;14.510948348210881;81.51812008850233
71642;BME280;60657;50.122;14.468;2022-10-17T06:17:56;99231.5833555672;;;14.660486762798506;81.34073395895324
71642;BME280;60657;50.122;14.468;2022-10-17T06:21:00;99239.84770669382;;;14.959563591973755;81.10231174181735
71642;BME280;60657;50.122;14.468;2022-10-17T06:24:03;99244.7917129305;;;15.109102006561379;80.44426642252232
71642;BME280;60657;50.122;14.468;2022-10-17T06:27:05;99248.15478227046;;;15.16784924086366;79.69275959411002
71642;BME280;60657;50.122;14.468;2022-10-17T06:30:08;99253.94109550555;;;15.432211795223928;79.5325398641947
71642;BME280;60657;50.122;14.468;2022-10-17T06:33:10;99255.55771729845;;;15.517662317845428;79.24834058136874
71642;BME280;60657;50.122;14.468;2022-10-17T06:36:13;99258.8039402709;;;15.680552376592658;78.64179446097505
71642;BME280;60657;50.122;14.468;2022-10-17T06:39:15;99254.42160159112;;;15.816739147020677;77.07011520561532
71642;BME280;60657;50.122;14.468;2022-10-17T06:42:17;99256.7180000469;;;16.025024795910582;76.34340428778515
71642;BME280;60657;50.122;14.468;2022-10-17T06:45:19;99268.41493336987;;;16.147859922178988;76.17746242465859
71642;BME280;60657;50.122;14.468;2022-10-17T06:48:22;99259.91310899856;;;16.342793926909287;75.30769817654688
71642;BME280;60657;50.122;14.468;2022-10-17T06:51:24;99262.40075434407;;;16.457618066681924;75.35728999771115
71642;BME280;60657;50.122;14.468;2022-10-17T06:54:26;99260.46521642139;;;16.70595864805066;74.3196765087358
71642;BME280;60657;50.122;14.468;2022-10-17T06:57:30;99259.69084554928;;;16.660563057907986;74.55046921492333
71642;BME280;60657;50.122;14.468;2022-10-17T07:00:32;99262.02515932212;;;16.641870756084536;74.30632486457618
71642;BME280;60657;50.122;14.468;2022-10-17T07:03:35;99272.68129789711;;;16.91958495460441;73.9343862058442
71642;BME280;60657;50.122;14.468;2022-10-17T07:06:38;99277.93385124904;;;17.480354009308;72.56679636835278
71642;BME280;60657;50.122;14.468;2022-10-17T07:09:40;99279.33800489943;;;17.66193636987869;71.54444190127413
71642;BME280;60657;50.122;14.468;2022-10-17T07:12:42;99274.17245908178;;;17.739375906004426;71.76379034103914
71642;BME280;60657;50.122;14.468;2022-10-17T07:15:44;99272.91795401534;;;18.035782406347757;70.64797436484321
71642;BME280;60657;50.122;14.468;2022-10-17T07:18:47;99270.92188416971;;;18.302815289539943;70.621271076524
71642;BME280;60657;50.122;14.468;2022-10-17T07:21:50;99271.19930816344;;;18.751430533302816;69.01335164415961
71642;BME280;60657;50.122;14.468;2022-10-17T07:24:52;99291.40913813032;;;18.79949645227741;69.07629510948348
71642;BME280;60657;50.122;14.468;2022-10-17T07:27:54;99277.3979948175;;;19.109254596780346;68.42778667887389
71642;BME280;60657;50.122;14.468;2022-10-17T07:31:01;99284.42993372053;;;19.40566109712367;67.42069123369193
71642;BME280;60657;50.122;14.468;2022-10-17T07:34:04;99278.86653126655;;;19.61928740367742;66.95529106584267
71642;BME280;60657;50.122;14.468;2022-10-17T07:37:06;99278.67941186509;;;19.76081483176928;66.36972610055696
71642;BME280;60657;50.122;14.468;2022-10-17T07:40:09;99268.47739283719;;;19.790188448920418;66.6577401388571
71642;BME280;60657;50.122;14.468;2022-10-17T07:43:11;99274.57301260487;;;20.01449607080187;66.55283436331732
71642;BME280;60657;50.122;14.468;2022-10-17T07:46:16;99278.52725087848;;;20.148012512397955;65.13565270466164
71642;BME280;60657;50.122;14.468;2022-10-17T07:49:18;99276.48422634299;;;20.52452887769894;63.7108415350576
71642;BME280;60657;50.122;14.468;2022-10-17T07:52:20;99279.59668898984;;;20.153353170061806;64.64164187075609
71642;BME280;60657;50.122;14.468;2022-10-17T07:55:22;99279.47025981105;;;20.802243076218815;63.68604562447547
71642;BME280;60657;50.122;14.468;2022-10-17T07:58:24;99272.06695432769;;;20.71412222476539;63.40947585259785
71642;BME280;60657;50.122;14.468;2022-10-17T08:01:26;99270.1004736564;;;20.839627679865714;62.79339284351873
71642;BME280;60657;50.122;14.468;2022-10-17T08:04:28;99274.10194452126;;;20.52452887769894;63.55825131609063
71642;BME280;60657;50.122;14.468;2022-10-17T08:07:31;99267.26823397588;;;20.444419012741278;63.956893263141836
71642;BME280;60657;50.122;14.468;2022-10-17T08:10:33;99270.1004736564;;;20.914396887159526;63.151979858091096
71642;BME280;60657;50.122;14.468;2022-10-17T08:13:35;99266.70119966316;;;21.23216601815824;61.78439002059967
71642;BME280;60657;50.122;14.468;2022-10-17T08:16:38;99266.3098946911;;;20.98916609445334;62.9898527504387
71642;BME280;60657;50.122;14.468;2022-10-17T08:19:40;99261.56003727608;;;20.898374914168002;62.93835355153735
71642;BME280;60657;50.122;14.468;2022-10-17T08:22:49;99263.33453440417;;;20.284199282825966;64.3307392996109
71642;BME280;60657;50.122;14.468;2022-10-17T08:25:52;99257.44476375022;;;20.834287022201877;63.4018463416495
71642;BME280;60657;50.122;14.468;2022-10-17T08:28:54;99260.05598527104;;;21.24551766231785;61.42580300602731
71642;BME280;60657;50.122;14.468;2022-10-17T08:31:56;99255.32971515052;;;21.184100099183638;61.2503242542153
71642;BME280;60657;50.122;14.468;2022-10-17T08:34:58;99258.04162759183;;;20.67673762111849;62.694209201190205
71642;BME280;60657;50.122;14.468;2022-10-17T08:38:01;99260.56078476757;;;21.240177004654;61.75768673228046
71642;BME280;60657;50.122;14.468;2022-10-17T08:41:04;99262.34053010574;;;21.541924162661175;60.9127183947509
71642;BME280;60657;50.122;14.468;2022-10-17T08:44:20;99264.04913034682;;;21.878385595483323;59.947585259784844
71642;BME280;60657;50.122;14.468;2022-10-17T08:47:36;99264.65675589908;;;21.76089112687876;59.3067063401236
71642;BME280;60657;50.122;14.468;2022-10-17T08:50:42;99261.85027702531;;;22.399099717708097;58.30914778362707
71642;BME280;60657;50.122;14.468;2022-10-17T08:53:52;99257.98065766865;;;22.134737163347836;59.016784924086366
71642;BME280;60657;50.122;14.468;2022-10-17T08:57:01;99255.08509261071;;;22.623407339589534;57.494697489890896
71642;BME280;60657;50.122;14.468;2022-10-17T09:00:06;99257.2748829749;;;22.262912947280086;57.727397573815516
71642;BME280;60657;50.122;14.468;2022-10-17T09:03:22;99257.57414251773;;;22.521934843976496;57.94865339131761
71642;BME280;60657;50.122;14.468;2022-10-17T09:06:38;99251.35134415337;;;22.943846799420157;56.64591439688716
71642;BME280;60657;50.122;14.468;2022-10-17T09:09:52;99259.751777299;;;23.226901655603882;55.92683299000534
71642;BME280;60657;50.122;14.468;2022-10-17T09:13:08;99237.92989837797;;;23.088044556343945;55.5644312199588
71642;BME280;60657;50.122;14.468;2022-10-17T09:16:26;99243.00980962871;;;23.149462119478144;55.7265583276112
71642;BME280;60657;50.122;14.468;2022-10-17T09:19:48;99239.85068090104;;;23.381780727855343;55.19058518348974
71642;BME280;60657;50.122;14.468;2022-10-17T09:23:01;99254.5424566988;;;23.39246204318303;54.048065918974594
71642;BME280;60657;50.122;14.468;2022-10-17T09:26:13;99252.99218893975;;;23.445868619821468;54.28076600289921
71642;BME280;60657;50.122;14.468;2022-10-17T09:29:18;99241.05091392215;;;23.771648737315942;54.088120851453425
71642;BME280;60657;50.122;14.468;2022-10-17T09:32:23;99234.98129142888;;;24.086747539482715;52.65568017090104
71642;BME280;60657;50.122;14.468;2022-10-17T09:35:26;99236.6791981404;;;23.865110246433204;53.31372549019608
71642;BME280;60657;50.122;14.468;2022-10-17T09:38:39;99243.16132883148;;;23.65682459754329;53.90691996643015
71642;BME280;60657;50.122;14.468;2022-10-17T09:41:46;99234.26990802758;;;23.98527504386969;53.618905928130005
71642;BME280;60657;50.122;14.468;2022-10-17T09:44:55;99232.72964051105;;;24.030670634012367;54.42572671091783
71642;BME280;60657;50.122;14.468;2022-10-17T09:48:17;99226.33650084023;;;24.196231021591515;54.11291676203555
71642;BME280;60657;50.122;14.468;2022-10-17T09:51:27;99223.48834262289;;;24.4632639047837;54.0919356069276
71642;BME280;60657;50.122;14.468;2022-10-17T09:54:35;99226.76730407066;;;24.65285725185015;53.26794842450599
71642;BME280;60657;50.122;14.468;2022-10-17T09:57:53;99227.16091264627;;;24.991989013504238;52.46684977492943
71642;BME280;60657;50.122;14.468;2022-10-17T10:00:57;99224.46954616917;;;25.165560387579163;51.37773708705272
71642;BME280;60657;50.122;14.468;2022-10-17T10:04:18;99231.10726087049;;;25.10414282444495;52.22652018005646
71642;BME280;60657;50.122;14.468;2022-10-17T10:07:21;99221.80877897525;;;24.935912108033875;52.0872816052491
71642;BME280;60657;50.122;14.468;2022-10-17T10:10:25;99221.15910987124;;;25.192263675898374;51.5722896162356
71642;BME280;60657;50.122;14.468;2022-10-17T10:13:30;99213.49866548149;;;25.614175631342036;50.84176394293126
71642;BME280;60657;50.122;14.468;2022-10-17T10:16:33;99196.98039493061;;;25.96131837949187;50.372549019607845
71642;BME280;60657;50.122;14.468;2022-10-17T10:19:48;99210.31221724748;;;25.702296482795447;50.52704661631189
71642;BME280;60657;50.122;14.468;2022-10-17T10:23:24;99197.59060460105;;;26.30846112764172;49.13847562371252
71642;BME280;60657;50.122;14.468;2022-10-17T10:26:28;99203.88195576135;;;26.13756008239872;48.96299687190051
71642;BME280;60657;50.122;14.468;2022-10-17T10:29:36;99207.07483424812;;;26.30312046997787;49.35782406347753
71642;BME280;60657;50.122;14.468;2022-10-17T10:32:43;99205.2175182032;;;26.495384145876244;48.48233768215457
71642;BME280;60657;50.122;14.468;2022-10-17T10:35:53;99214.26990448982;;;25.753032730601973;49.2452887769894
71642;BME280;60657;50.122;14.468;2022-10-17T10:39:01;99207.51111189414;;;26.16693369954986;49.63057907988098
71642;BME280;60657;50.122;14.468;2022-10-17T10:42:05;99222.71619693638;;;26.092164492256046;48.96299687190051
71642;BME280;60657;50.122;14.468;2022-10-17T10:45:19;99212.24937765235;;;25.96131837949187;49.3330281528954
71642;BME280;60657;50.122;14.468;2022-10-17T10:48:24;99206.1465957085;;;26.033417257953772;49.24719615472648
71642;BME280;60657;50.122;14.468;2022-10-17T10:51:31;99202.18488655744;;;25.846494239719235;50.43358510719463
71642;BME280;60657;50.122;14.468;2022-10-17T10:54:52;99197.92537898151;;;25.590142671854736;50.63385976958877
71642;BME280;60657;50.122;14.468;2022-10-17T10:58:02;99193.91606581493;;;25.76371404592966;50.07690547035935
71642;BME280;60657;50.122;14.468;2022-10-17T11:01:26;99174.3427703411;;;26.391241321431295;49.23575188830396
71642;BME280;60657;50.122;14.468;2022-10-17T11:04:38;99181.25356337853;;;26.60219729915312;47.59159227893492
71642;BME280;60657;50.122;14.468;2022-10-17T11:07:52;99182.15047385167;;;26.359197375448232;48.18097199969482
71642;BME280;60657;50.122;14.468;2022-10-17T11:11:10;99186.88690938304;;;26.30312046997787;49.25673304341192
71642;BME280;60657;50.122;14.468;2022-10-17T11:14:20;99182.81152850868;;;26.185626001373308;49.30632486457618